Time;durP1;ratioP1;P1;durP2;ratioP2;P2;SDS_P1;SDS_P2;PMS_P1;PMS_P2;Temp;Humidity;BMP_temperature;BMP_pressure;BME280_temperature;BME280_humidity;BME280_pressure;Samples;Min_cycle;Max_cycle;Signal;HPM_P1;HPM_P2
2021/04/08 00:02:33;;;;;;;;;;;0.80;99.90;;;;;;10370048;28;19924;-91
2021/04/08 00:07:34;;;;;;;;;;;0.90;99.90;;;;;;10397298;28;19925;-91
2021/04/08 00:12:36;;;;;;;;;;;1.00;99.90;;;;;;10388653;28;19930;-91
2021/04/08 00:17:37;;;;;;;;;;;1.30;99.90;;;;;;10506157;28;19932;-91
2021/04/08 00:22:38;;;;;;;;;;;0.90;99.90;;;;;;10487383;28;19928;-91
2021/04/08 00:27:40;;;;;;;;;;;0.80;99.90;;;;;;10506149;28;19998;-91
2021/04/08 00:32:42;;;;;;;;;;;0.80;99.90;;;;;;10517045;28;20016;-90
2021/04/08 00:37:43;;;;;;;;;;;2.20;99.90;;;;;;10350553;28;20330;-90
2021/04/08 00:42:44;;;;;;;;;;;0.70;99.90;;;;;;10419768;28;20495;-91
2021/04/08 00:47:46;;;;;;;;;;;0.60;99.90;;;;;;10505767;28;20316;-91
2021/04/08 00:53:07;;;;;;;;;;;2.50;99.90;;;;;;10522401;28;19925;-91
2021/04/08 00:58:08;;;;;;;;;;;0.70;99.90;;;;;;10522608;28;19967;-90
2021/04/08 01:08:15;;;;;;;;;;;0.90;99.90;;;;;;10344645;28;19929;-88
2021/04/08 01:13:18;;;;;;;;;;;1.00;99.90;;;;;;10325598;28;19932;-88
2021/04/08 01:18:20;;;;;;;;;;;0.80;99.90;;;;;;10326572;28;20016;-87
2021/04/08 01:23:24;;;;;;;;;;;1.10;99.90;;;;;;10327427;28;20295;-88
2021/04/08 01:28:31;;;;;;;;;;;1.00;99.90;;;;;;10310187;28;20021;-88
2021/04/08 01:33:43;;;;;;;;;;;1.00;99.90;;;;;;10303129;28;19926;-89
2021/04/08 01:38:47;;;;;;;;;;;1.00;99.90;;;;;;10398668;28;19953;-89
2021/04/08 01:43:50;;;;;;;;;;;1.00;99.90;;;;;;10388504;28;20037;-88
2021/04/08 01:48:53;;;;;;;;;;;1.10;99.90;;;;;;10359153;28;19926;-88
2021/04/08 01:54:01;;;;;;;;;;;1.00;99.90;;;;;;10305600;28;19925;-88
2021/04/08 01:59:04;;;;;;;;;;;1.10;99.90;;;;;;10331494;28;19932;-89
2021/04/08 02:04:07;;;;;;;;;;;2.60;99.90;;;;;;10317773;28;20319;-89
2021/04/08 02:09:08;;;;;;;;;;;1.20;99.90;;;;;;10291648;28;19932;-89
2021/04/08 02:14:10;;;;;;;;;;;1.30;99.90;;;;;;10294241;28;19933;-89
2021/04/08 02:19:12;;;;;;;;;;;1.40;99.90;;;;;;10323099;28;19932;-89
2021/04/08 02:24:15;;;;;;;;;;;1.30;99.90;;;;;;10381649;28;20300;-89
2021/04/08 02:29:17;;;;;;;;;;;1.30;99.90;;;;;;10291835;28;19932;-89
2021/04/08 02:34:20;;;;;;;;;;;1.10;99.90;;;;;;10358324;28;19932;-88
2021/04/08 02:39:21;;;;;;;;;;;1.00;99.90;;;;;;10291157;28;20019;-88
2021/04/08 02:44:23;;;;;;;;;;;1.10;99.90;;;;;;10291350;28;19932;-88
2021/04/08 02:49:24;;;;;;;;;;;1.40;99.90;;;;;;10290178;28;19926;-89
2021/04/08 02:54:28;;;;;;;;;;;1.10;99.90;;;;;;10306232;28;19926;-89
2021/04/08 02:59:39;;;;;;;;;;;1.10;99.90;;;;;;10329615;28;20030;-89
2021/04/08 03:04:42;;;;;;;;;;;1.20;99.90;;;;;;10311676;28;20284;-89
2021/04/08 03:09:44;;;;;;;;;;;1.40;99.90;;;;;;10291012;28;19927;-90
2021/04/08 03:14:47;;;;;;;;;;;1.30;99.90;;;;;;10307875;28;19933;-89
2021/04/08 03:19:49;;;;;;;;;;;1.30;99.90;;;;;;10362290;28;19926;-89
2021/04/08 03:24:54;;;;;;;;;;;1.30;99.90;;;;;;10309009;28;19978;-90
2021/04/08 03:29:56;;;;;;;;;;;1.30;99.90;;;;;;10330631;28;19929;-89
2021/04/08 03:34:57;;;;;;;;;;;1.30;99.90;;;;;;10376507;28;20001;-89
2021/04/08 03:39:59;;;;;;;;;;;1.30;99.90;;;;;;10289849;28;19926;-90
2021/04/08 03:45:01;;;;;;;;;;;2.40;99.90;;;;;;10355621;28;20009;-87
2021/04/08 03:50:03;;;;;;;;;;;1.20;99.90;;;;;;10288331;28;20391;-87
2021/04/08 03:55:05;;;;;;;;;;;1.10;99.90;;;;;;10308767;28;19930;-87
2021/04/08 04:00:08;;;;;;;;;;;1.10;99.90;;;;;;10327573;28;20396;-87
2021/04/08 04:05:09;;;;;;;;;;;1.20;99.90;;;;;;10309155;28;20410;-87
2021/04/08 04:10:11;;;;;;;;;;;1.30;99.90;;;;;;10289194;28;19926;-87
2021/04/08 04:15:13;;;;;;;;;;;1.20;99.90;;;;;;10302240;28;19926;-88
2021/04/08 04:20:20;;;;;;;;;;;1.20;99.90;;;;;;10302373;28;19975;-87
2021/04/08 04:25:21;;;;;;;;;;;1.20;99.90;;;;;;10307105;28;19930;-88
2021/04/08 04:30:22;;;;;;;;;;;2.30;99.90;;;;;;10288750;28;19933;-88
2021/04/08 04:35:24;;;;;;;;;;;1.30;99.90;;;;;;10288387;28;19927;-88
2021/04/08 04:40:26;;;;;;;;;;;1.40;99.90;;;;;;10304368;28;19936;-89
2021/04/08 04:45:27;;;;;;;;;;;1.40;99.90;;;;;;10309404;28;19926;-89
2021/04/08 04:50:28;;;;;;;;;;;1.40;99.90;;;;;;10327981;28;20370;-90
2021/04/08 04:55:30;;;;;;;;;;;1.50;99.90;;;;;;10305405;28;19926;-90
2021/04/08 05:00:31;;;;;;;;;;;3.00;99.90;;;;;;10293625;28;19952;-92
2021/04/08 05:05:32;;;;;;;;;;;3.40;99.90;;;;;;10383098;28;19991;-93
2021/04/08 05:10:34;;;;;;;;;;;1.50;99.90;;;;;;10402671;28;20376;-90
2021/04/08 05:15:35;;;;;;;;;;;1.60;99.90;;;;;;10402158;28;19952;-90
2021/04/08 05:20:47;;;;;;;;;;;1.50;99.90;;;;;;10296325;28;19926;-89
2021/04/08 05:25:49;;;;;;;;;;;1.60;99.90;;;;;;10294038;28;19932;-89
2021/04/08 05:30:50;;;;;;;;;;;1.70;99.90;;;;;;10361735;28;20024;-90
2021/04/08 05:35:52;;;;;;;;;;;1.70;99.90;;;;;;10384710;28;19926;-90
2021/04/08 05:40:53;;;;;;;;;;;3.50;99.90;;;;;;10334506;28;20275;-90
2021/04/08 05:45:54;;;;;;;;;;;1.90;99.90;;;;;;10400541;28;20024;-89
2021/04/08 05:50:56;;;;;;;;;;;1.90;99.90;;;;;;10402009;28;20020;-90
2021/04/08 05:55:57;;;;;;;;;;;2.30;99.90;;;;;;10310956;28;19973;-90
2021/04/08 06:00:59;;;;;;;;;;;2.00;99.90;;;;;;10360478;28;19927;-90
2021/04/08 06:06:00;;;;;;;;;;;2.00;99.90;;;;;;10293224;28;20013;-89
2021/04/08 06:11:02;;;;;;;;;;;2.00;99.90;;;;;;10300131;28;19933;-89
2021/04/08 06:16:04;;;;;;;;;;;2.10;99.90;;;;;;10330113;28;20304;-88
2021/04/08 06:21:05;;;;;;;;;;;2.20;99.90;;;;;;10307746;28;19948;-88
2021/04/08 06:26:06;;;;;;;;;;;2.70;99.90;;;;;;10293334;28;19926;-91
2021/04/08 06:31:09;;;;;;;;;;;3.10;99.90;;;;;;10291178;28;19948;-90
2021/04/08 06:36:10;;;;;;;;;;;3.50;99.90;;;;;;10317078;28;20017;-91
2021/04/08 06:41:12;;;;;;;;;;;2.40;99.90;;;;;;10387608;28;19926;-92
2021/04/08 06:46:16;;;;;;;;;;;2.40;99.90;;;;;;10332269;28;19926;-92
2021/04/08 06:51:19;;;;;;;;;;;2.40;99.90;;;;;;10331281;28;19992;-92
2021/04/08 06:56:20;;;;;;;;;;;2.70;99.90;;;;;;10360009;28;19941;-92
2021/04/08 07:01:22;;;;;;;;;;;5.40;99.90;;;;;;10290615;28;19926;-91
2021/04/08 07:06:23;;;;;;;;;;;6.20;99.90;;;;;;10373786;28;20020;-90
2021/04/08 07:11:26;;;;;;;;;;;5.70;99.90;;;;;;10362144;28;19929;-91
2021/04/08 07:16:28;;;;;;;;;;;6.00;99.90;;;;;;10483242;28;20011;-91
2021/04/08 07:21:31;;;;;;;;;;;5.70;99.90;;;;;;10468597;22;19924;-89
2021/04/08 07:26:48;;;;;;;;;;;5.20;99.90;;;;;;10475293;28;19931;-89
2021/04/08 07:31:49;;;;;;;;;;;5.80;99.90;;;;;;10497041;28;19924;-89
2021/04/08 07:36:53;;;;;;;;;;;7.60;99.90;;;;;;10541896;28;19924;-89
2021/04/08 07:41:59;;;;;;;;;;;7.40;99.90;;;;;;10481337;28;19925;-87
2021/04/08 07:47:00;;;;;;;;;;;6.50;99.90;;;;;;10499968;28;19924;-86
2021/04/08 07:52:34;;;;;;;;;;;6.50;99.90;;;;;;10480981;28;19967;-87
2021/04/08 07:57:48;;;;;;;;;;;7.20;99.50;;;;;;10438274;28;19929;-87
2021/04/08 08:02:51;;;;;;;;;;;9.00;99.90;;;;;;10498906;28;20023;-86
2021/04/08 08:08:06;;;;;;;;;;;9.30;96.60;;;;;;10531583;28;19924;-86
2021/04/08 08:13:24;;;;;;;;;;;9.40;98.90;;;;;;10498762;28;19929;-86
2021/04/08 08:18:27;;;;;;;;;;;10.00;94.30;;;;;;10499265;28;19928;-87
2021/04/08 08:23:35;;;;;;;;;;;10.00;95.00;;;;;;10480226;28;20291;-88
2021/04/08 08:28:36;;;;;;;;;;;9.90;94.50;;;;;;10501129;28;19929;-87
2021/04/08 08:33:37;;;;;;;;;;;10.30;90.20;;;;;;10485487;28;19931;-88
2021/04/08 08:38:40;;;;;;;;;;;11.40;85.00;;;;;;10487969;28;20375;-88
2021/04/08 08:43:41;;;;;;;;;;;10.90;78.90;;;;;;10487802;28;19924;-88
2021/04/08 08:48:43;;;;;;;;;;;11.60;81.10;;;;;;10504520;28;19963;-87
2021/04/08 08:53:45;;;;;;;;;;;11.50;77.10;;;;;;10505101;28;19924;-88
2021/04/08 08:58:47;;;;;;;;;;;11.60;83.10;;;;;;10505690;28;20015;-88
2021/04/08 09:03:50;;;;;;;;;;;11.70;79.90;;;;;;10464623;28;20011;-88
2021/04/08 09:08:55;;;;;;;;;;;8.50;85.10;;;;;;10444960;28;19925;-88
2021/04/08 09:13:58;;;;;;;;;;;8.10;83.10;;;;;;10446265;28;19929;-89
2021/04/08 09:19:05;;;;;;;;;;;7.50;78.80;;;;;;10481139;28;20708;-87
2021/04/08 09:24:18;;;;;;;;;;;7.60;80.00;;;;;;10503112;28;19925;-87
2021/04/08 09:29:41;;;;;;;;;;;8.10;78.60;;;;;;10463737;28;20375;-87
2021/04/08 09:35:02;;;;;;;;;;;8.50;72.30;;;;;;10486361;28;19924;-87
2021/04/08 09:40:04;;;;;;;;;;;8.30;71.30;;;;;;10481771;28;19925;-87
2021/04/08 09:45:05;;;;;;;;;;;8.50;75.80;;;;;;10484191;28;19967;-88
2021/04/08 09:50:07;;;;;;;;;;;9.20;75.00;;;;;;10474576;28;20011;-88
2021/04/08 09:55:09;;;;;;;;;;;9.20;68.50;;;;;;10498901;28;19931;-87
2021/04/08 10:00:12;;;;;;;;;;;9.10;65.90;;;;;;10502507;28;19924;-87
2021/04/08 10:05:14;;;;;;;;;;;9.20;68.20;;;;;;10502366;28;19930;-88
2021/04/08 10:10:16;;;;;;;;;;;9.00;68.60;;;;;;10502876;28;20011;-87
2021/04/08 10:15:32;;;;;;;;;;;8.70;66.00;;;;;;10483944;28;20291;-88
2021/04/08 10:20:37;;;;;;;;;;;8.70;68.30;;;;;;10521227;28;19924;-88
2021/04/08 10:25:39;;;;;;;;;;;8.50;65.30;;;;;;10526144;28;19931;-88
2021/04/08 10:30:40;;;;;;;;;;;8.90;69.00;;;;;;10543403;28;19928;-87
2021/04/08 10:35:42;;;;;;;;;;;8.70;61.80;;;;;;10536938;28;19924;-88
2021/04/08 10:40:48;;;;;;;;;;;8.70;66.50;;;;;;10519623;28;20290;-87
2021/04/08 10:45:54;;;;;;;;;;;8.90;67.50;;;;;;10527969;28;20357;-87
2021/04/08 10:50:55;;;;;;;;;;;8.60;63.40;;;;;;10516212;28;19931;-88
2021/04/08 10:55:57;;;;;;;;;;;8.80;63.40;;;;;;10542254;28;19924;-88
2021/04/08 11:00:59;;;;;;;;;;;8.80;67.00;;;;;;10542242;28;20357;-88
2021/04/08 11:06:01;;;;;;;;;;;8.80;65.50;;;;;;10508281;28;20019;-88
2021/04/08 11:11:02;;;;;;;;;;;8.50;70.00;;;;;;10524760;28;19933;-90
2021/04/08 11:16:03;;;;;;;;;;;8.80;68.50;;;;;;10499532;28;20299;-88
2021/04/08 11:21:05;;;;;;;;;;;8.80;69.20;;;;;;10481672;28;19924;-88
2021/04/08 11:26:10;;;;;;;;;;;8.70;66.70;;;;;;10499297;28;20462;-89
2021/04/08 11:31:12;;;;;;;;;;;8.50;63.40;;;;;;10466293;28;19928;-89
2021/04/08 11:36:18;;;;;;;;;;;8.50;69.90;;;;;;10488913;28;19925;-88
2021/04/08 11:41:19;;;;;;;;;;;8.40;68.00;;;;;;10566325;28;19924;-87
2021/04/08 11:46:36;;;;;;;;;;;8.60;67.90;;;;;;10545011;28;19931;-89
2021/04/08 11:51:38;;;;;;;;;;;8.70;65.60;;;;;;10551213;28;19924;-89
2021/04/08 11:56:40;;;;;;;;;;;8.60;64.40;;;;;;10503229;28;19925;-88
2021/04/08 12:01:45;;;;;;;;;;;8.70;66.20;;;;;;10480634;28;20360;-88
2021/04/08 12:06:49;;;;;;;;;;;8.90;70.70;;;;;;10536242;28;19977;-88
2021/04/08 12:11:52;;;;;;;;;;;9.10;68.20;;;;;;10539824;28;20429;-89
2021/04/08 12:17:02;;;;;;;;;;;8.80;68.70;;;;;;10521958;28;20231;-88
2021/04/08 12:22:05;;;;;;;;;;;9.10;68.60;;;;;;10482631;28;20655;-88
2021/04/08 12:27:16;;;;;;;;;;;9.10;66.10;;;;;;10520967;28;19941;-88
2021/04/08 12:32:26;;;;;;;;;;;9.30;64.80;;;;;;10495946;28;19931;-90
2021/04/08 12:37:27;;;;;;;;;;;9.50;66.30;;;;;;10509238;28;19924;-90
2021/04/08 12:42:29;;;;;;;;;;;9.60;63.50;;;;;;10522007;28;20010;-89
2021/04/08 12:47:30;;;;;;;;;;;9.60;64.70;;;;;;10539647;28;19969;-90
2021/04/08 12:52:32;;;;;;;;;;;9.20;61.60;;;;;;10505284;28;19930;-87
2021/04/08 12:57:33;;;;;;;;;;;9.00;68.10;;;;;;10521659;28;19942;-88
2021/04/08 13:02:35;;;;;;;;;;;9.30;63.60;;;;;;10521316;28;19924;-89
2021/04/08 13:07:37;;;;;;;;;;;9.10;68.50;;;;;;10518025;28;20386;-89
2021/04/08 13:12:39;;;;;;;;;;;9.20;66.20;;;;;;10539639;28;19924;-89
2021/04/08 13:17:41;;;;;;;;;;;9.70;67.30;;;;;;10539256;28;19924;-88
2021/04/08 13:22:42;;;;;;;;;;;9.80;62.70;;;;;;10555921;28;20378;-90
2021/04/08 13:27:43;;;;;;;;;;;9.50;66.00;;;;;;10554057;28;19946;-88
2021/04/08 13:32:45;;;;;;;;;;;9.40;66.10;;;;;;10565054;28;19924;-88
2021/04/08 13:37:47;;;;;;;;;;;9.70;64.90;;;;;;10527760;28;20678;-88
2021/04/08 13:42:48;;;;;;;;;;;9.80;64.30;;;;;;10527255;28;19932;-87
2021/04/08 13:47:50;;;;;;;;;;;9.70;63.00;;;;;;10503391;28;20367;-88
2021/04/08 13:52:53;;;;;;;;;;;9.50;66.00;;;;;;10402826;23;20388;-87
2021/04/08 13:57:55;;;;;;;;;;;9.90;61.10;;;;;;10399495;28;20004;-88
2021/04/08 14:02:56;;;;;;;;;;;10.30;68.10;;;;;;10475171;28;19930;-86
2021/04/08 14:07:58;;;;;;;;;;;9.90;63.20;;;;;;10510352;28;19979;-86
2021/04/08 14:12:59;;;;;;;;;;;10.00;65.00;;;;;;10492918;28;19947;-86
2021/04/08 14:18:00;;;;;;;;;;;9.70;58.10;;;;;;10526554;28;19924;-87
2021/04/08 14:23:02;;;;;;;;;;;9.90;62.40;;;;;;10483773;28;19931;-86
2021/04/08 14:28:04;;;;;;;;;;;10.30;60.60;;;;;;10484204;28;20384;-86
2021/04/08 14:33:05;;;;;;;;;;;10.50;58.10;;;;;;10522956;28;19930;-87
2021/04/08 14:38:07;;;;;;;;;;;10.20;60.30;;;;;;10536631;28;19932;-86
2021/04/08 14:43:09;;;;;;;;;;;10.50;60.90;;;;;;10350395;28;19933;-86
2021/04/08 14:48:10;;;;;;;;;;;10.20;60.40;;;;;;10511447;28;20015;-86
2021/04/08 14:53:16;;;;;;;;;;;9.80;58.10;;;;;;10523275;28;19924;-87
2021/04/08 14:58:19;;;;;;;;;;;10.00;61.40;;;;;;10539116;28;20616;-87
2021/04/08 15:03:20;;;;;;;;;;;10.40;61.40;;;;;;10465828;28;19930;-86
2021/04/08 15:08:21;;;;;;;;;;;10.10;61.40;;;;;;10485256;28;20353;-86
2021/04/08 15:13:23;;;;;;;;;;;10.30;62.30;;;;;;10553264;28;20015;-86
2021/04/08 15:18:24;;;;;;;;;;;10.20;59.10;;;;;;10520945;28;19957;-86
2021/04/08 15:23:26;;;;;;;;;;;10.30;56.60;;;;;;10505943;28;19927;-86
2021/04/08 15:28:27;;;;;;;;;;;10.50;63.20;;;;;;10520633;28;20025;-87
2021/04/08 15:33:28;;;;;;;;;;;9.80;61.60;;;;;;10538231;28;19942;-86
2021/04/08 15:38:30;;;;;;;;;;;10.00;62.50;;;;;;10522804;28;19930;-88
2021/04/08 15:43:31;;;;;;;;;;;9.90;60.60;;;;;;10508840;28;19929;-90
2021/04/08 15:48:32;;;;;;;;;;;10.00;63.40;;;;;;10497038;28;19924;-88
2021/04/08 15:53:34;;;;;;;;;;;10.20;62.80;;;;;;10480497;28;19924;-89
2021/04/08 15:58:35;;;;;;;;;;;9.90;62.40;;;;;;10521607;28;19931;-89
2021/04/08 16:03:38;;;;;;;;;;;10.10;59.70;;;;;;10522632;28;20005;-89
2021/04/08 16:08:42;;;;;;;;;;;10.20;59.20;;;;;;10522045;28;20128;-89
2021/04/08 16:13:43;;;;;;;;;;;10.10;62.80;;;;;;10521923;28;20405;-89
2021/04/08 16:18:45;;;;;;;;;;;10.00;64.30;;;;;;10512795;28;19924;-89
2021/04/08 16:23:46;;;;;;;;;;;9.80;62.50;;;;;;10485704;28;20007;-89
2021/04/08 16:28:48;;;;;;;;;;;9.40;64.10;;;;;;10494897;28;19931;-89
2021/04/08 16:33:49;;;;;;;;;;;9.00;64.30;;;;;;10497609;28;20382;-86
2021/04/08 16:38:51;;;;;;;;;;;8.50;66.30;;;;;;10488033;28;20294;-87
2021/04/08 16:43:52;;;;;;;;;;;8.50;68.60;;;;;;10523441;28;20366;-87
2021/04/08 16:48:54;;;;;;;;;;;8.60;72.10;;;;;;10536822;28;19930;-87
2021/04/08 16:53:55;;;;;;;;;;;8.50;69.60;;;;;;10525057;28;19977;-87
2021/04/08 16:58:57;;;;;;;;;;;8.50;72.00;;;;;;10530060;28;19928;-87
2021/04/08 17:03:59;;;;;;;;;;;8.50;71.60;;;;;;10496295;28;19925;-86
2021/04/08 17:09:00;;;;;;;;;;;8.40;73.60;;;;;;10487117;28;19930;-86
2021/04/08 17:14:02;;;;;;;;;;;8.30;71.00;;;;;;10424528;28;19933;-87
2021/04/08 17:19:04;;;;;;;;;;;8.40;74.30;;;;;;10527886;28;20343;-87
2021/04/08 17:24:05;;;;;;;;;;;8.80;76.30;;;;;;10544733;28;19924;-87
2021/04/08 17:29:07;;;;;;;;;;;8.20;77.30;;;;;;10486587;28;19926;-87
2021/04/08 17:34:08;;;;;;;;;;;8.10;73.90;;;;;;10508403;28;19983;-87
2021/04/08 17:39:09;;;;;;;;;;;8.10;77.90;;;;;;10531601;28;20024;-86
2021/04/08 17:44:10;;;;;;;;;;;7.90;79.30;;;;;;10533422;28;20024;-87
2021/04/08 17:49:12;;;;;;;;;;;7.80;80.90;;;;;;10526869;28;20385;-86
2021/04/08 17:54:13;;;;;;;;;;;7.70;81.40;;;;;;10527298;28;19924;-87
2021/04/08 17:59:15;;;;;;;;;;;7.50;80.10;;;;;;10542433;28;20328;-86
2021/04/08 18:04:16;;;;;;;;;;;8.70;87.40;;;;;;10525606;28;19946;-86
2021/04/08 18:09:17;;;;;;;;;;;7.00;89.50;;;;;;10509627;28;20306;-86
2021/04/08 18:14:39;;;;;;;;;;;6.90;88.20;;;;;;10526435;28;19974;-87
2021/04/08 18:19:42;;;;;;;;;;;6.60;93.70;;;;;;10525628;28;20378;-86
2021/04/08 18:24:44;;;;;;;;;;;6.40;93.70;;;;;;10544695;28;19924;-86
2021/04/08 18:29:47;;;;;;;;;;;6.40;95.70;;;;;;10543087;28;20450;-86
2021/04/08 18:34:49;;;;;;;;;;;6.10;98.40;;;;;;10526215;28;19930;-86
2021/04/08 18:39:52;;;;;;;;;;;5.90;99.80;;;;;;10508379;28;19924;-86
2021/04/08 18:44:53;;;;;;;;;;;5.80;99.20;;;;;;10511629;28;19924;-86
2021/04/08 18:49:54;;;;;;;;;;;5.70;99.90;;;;;;10500520;28;19924;-86
2021/04/08 18:54:56;;;;;;;;;;;5.50;99.90;;;;;;10501980;28;20310;-86
2021/04/08 18:59:57;;;;;;;;;;;5.40;99.90;;;;;;10542989;28;19935;-87
2021/04/08 19:05:01;;;;;;;;;;;5.30;99.90;;;;;;10507994;28;19924;-87
2021/04/08 19:10:03;;;;;;;;;;;5.00;99.90;;;;;;10521743;28;19928;-86
2021/04/08 19:15:05;;;;;;;;;;;5.00;99.90;;;;;;10570443;28;19974;-86
2021/04/08 19:20:06;;;;;;;;;;;5.00;99.90;;;;;;10512702;28;19931;-86
2021/04/08 19:25:08;;;;;;;;;;;4.70;99.90;;;;;;10497436;28;19931;-86
2021/04/08 19:30:12;;;;;;;;;;;4.60;99.90;;;;;;10499198;28;19946;-87
2021/04/08 19:35:13;;;;;;;;;;;4.40;99.90;;;;;;10482084;28;19931;-87
2021/04/08 19:40:15;;;;;;;;;;;4.50;99.90;;;;;;10508922;28;19924;-86
2021/04/08 19:45:17;;;;;;;;;;;4.30;99.90;;;;;;10522471;28;19934;-86
2021/04/08 19:50:18;;;;;;;;;;;4.40;99.90;;;;;;10445386;22;20303;-83
2021/04/08 19:55:19;;;;;;;;;;;4.60;99.90;;;;;;10328777;28;20292;-83
2021/04/08 20:00:22;;;;;;;;;;;5.30;99.90;;;;;;10395687;28;19926;-84
2021/04/08 20:05:23;;;;;;;;;;;4.90;99.90;;;;;;10328370;28;19926;-84
2021/04/08 20:10:24;;;;;;;;;;;6.10;99.90;;;;;;10327901;28;19934;-83
2021/04/08 20:15:26;;;;;;;;;;;4.80;99.90;;;;;;10394584;28;19926;-83
2021/04/08 20:20:28;;;;;;;;;;;4.70;99.90;;;;;;10389353;28;20012;-83
2021/04/08 20:25:29;;;;;;;;;;;4.60;99.90;;;;;;10427246;28;19934;-83
2021/04/08 20:30:31;;;;;;;;;;;4.60;99.90;;;;;;10532247;28;20409;-84
2021/04/08 20:35:32;;;;;;;;;;;4.40;99.90;;;;;;10530285;28;19931;-84
2021/04/08 20:40:38;;;;;;;;;;;4.60;99.90;;;;;;10547481;28;19935;-83
2021/04/08 20:45:40;;;;;;;;;;;4.80;99.90;;;;;;10548099;28;19928;-83
2021/04/08 20:50:41;;;;;;;;;;;4.60;99.90;;;;;;10529383;28;20377;-84
2021/04/08 20:55:43;;;;;;;;;;;4.40;99.90;;;;;;10529925;28;19930;-83
2021/04/08 21:00:57;;;;;;;;;;;6.40;99.90;;;;;;10547274;28;19931;-83
2021/04/08 21:05:58;;;;;;;;;;;4.50;99.90;;;;;;10513396;28;19936;-83
2021/04/08 21:10:59;;;;;;;;;;;4.50;99.90;;;;;;10546356;28;20405;-83
2021/04/08 21:16:01;;;;;;;;;;;6.00;99.90;;;;;;10522382;28;19930;-83
2021/04/08 21:21:02;;;;;;;;;;;4.40;99.90;;;;;;10529448;28;19924;-83
2021/04/08 21:26:04;;;;;;;;;;;4.40;99.90;;;;;;10494390;28;20017;-83
2021/04/08 21:31:06;;;;;;;;;;;4.40;99.90;;;;;;10515097;28;20388;-83
2021/04/08 21:36:07;;;;;;;;;;;4.50;99.90;;;;;;10528405;28;19928;-83
2021/04/08 21:41:08;;;;;;;;;;;4.30;99.90;;;;;;10508952;28;19978;-83
2021/04/08 21:46:10;;;;;;;;;;;5.00;99.90;;;;;;10544746;28;19924;-83
2021/04/08 21:51:11;;;;;;;;;;;4.10;99.90;;;;;;10527048;28;19928;-83
2021/04/08 21:56:13;;;;;;;;;;;4.30;99.90;;;;;;10527235;28;19931;-83
2021/04/08 22:01:15;;;;;;;;;;;4.40;99.90;;;;;;10545203;28;20359;-83
2021/04/08 22:06:16;;;;;;;;;;;4.30;99.90;;;;;;10545148;28;20393;-83
2021/04/08 22:11:17;;;;;;;;;;;4.10;99.90;;;;;;10545433;28;19924;-83
2021/04/08 22:16:19;;;;;;;;;;;3.90;99.90;;;;;;10510780;28;19930;-83
2021/04/08 22:21:20;;;;;;;;;;;4.10;99.90;;;;;;10525971;28;20435;-83
2021/04/08 22:26:21;;;;;;;;;;;3.90;99.90;;;;;;10524585;28;19924;-84
2021/04/08 22:31:23;;;;;;;;;;;4.70;99.90;;;;;;10485125;28;19924;-84
2021/04/08 22:36:24;;;;;;;;;;;4.20;99.90;;;;;;10484911;28;19931;-83
2021/04/08 22:41:26;;;;;;;;;;;5.90;99.90;;;;;;10501178;28;19925;-83
2021/04/08 22:46:27;;;;;;;;;;;5.60;99.90;;;;;;10531140;28;19924;-83
2021/04/08 22:51:29;;;;;;;;;;;4.10;99.90;;;;;;10542382;28;19935;-83
2021/04/08 22:56:30;;;;;;;;;;;4.20;99.90;;;;;;10525091;28;20367;-83
2021/04/08 23:01:31;;;;;;;;;;;4.00;99.90;;;;;;10525244;28;19924;-83
2021/04/08 23:06:33;;;;;;;;;;;4.00;99.90;;;;;;10542701;28;19924;-83
2021/04/08 23:11:35;;;;;;;;;;;4.10;99.90;;;;;;10543076;28;20015;-83
2021/04/08 23:16:36;;;;;;;;;;;4.20;99.90;;;;;;10542181;28;19924;-83
2021/04/08 23:21:37;;;;;;;;;;;4.30;99.90;;;;;;10524754;28;19930;-83
2021/04/08 23:26:40;;;;;;;;;;;4.30;99.90;;;;;;10508105;28;19924;-83
2021/04/08 23:31:45;;;;;;;;;;;4.40;99.90;;;;;;10542319;28;19924;-83
2021/04/08 23:36:46;;;;;;;;;;;3.90;99.90;;;;;;10524568;28;19979;-83
2021/04/08 23:41:48;;;;;;;;;;;5.50;99.90;;;;;;10488766;28;20019;-82
2021/04/08 23:46:49;;;;;;;;;;;5.40;99.90;;;;;;10499432;28;19924;-83
2021/04/08 23:51:51;;;;;;;;;;;4.20;99.90;;;;;;10480527;28;20382;-83
2021/04/08 23:56:53;;;;;;;;;;;4.00;99.90;;;;;;10481168;28;19946;-83
